Assonet, Massachusetts
Current Conditions -  °F | °C
As of 3:52 AM on Monday 20 Oct 2014 (Local Time) from KTAN Reporting Station
Clear Clear  
Wind Chill:   Ceiling: Unl
Heat Index:   Visibility: 10mi
Dew Point: -3°   Wind: 0mph
Humidity: 70%   Direction: NA
Pressure: 30.02"   Gusts: NA
Location:  41.8°N, 71.07°W
Report Text: KTAN 200752Z AUTO 00000KT 10SM CLR 02/M03 A3002 RMK AO2 SLP164 T00221028
Loading
Personal Weather Stations






























Interactive Weather Map
Tropical Storm Tracking
New forecast layout! Learn more

10-Day Weather Forecast

Advertisements
Track Severe Weather on mobile